createdAt,value
2019-04-07T00:00:41.145Z,1000.50
2019-04-07T00:01:41.195Z,1000.50
2019-04-07T00:02:41.102Z,1000.47
2019-04-07T00:03:41.087Z,1000.50
2019-04-07T00:04:41.437Z,1000.53
2019-04-07T00:05:41.531Z,1000.51
2019-04-07T00:06:41.506Z,1000.51
2019-04-07T00:07:41.431Z,1000.50
2019-04-07T00:08:41.049Z,1000.51
2019-04-07T00:09:41.023Z,1000.46
2019-04-07T00:10:41.386Z,1000.48
2019-04-07T00:11:41.015Z,1000.51
2019-04-07T00:12:41.247Z,1000.52
2019-04-07T00:13:41.398Z,1000.46
2019-04-07T00:14:40.979Z,1000.51
2019-04-07T00:15:41.524Z,1000.51
2019-04-07T00:16:40.955Z,1000.55
2019-04-07T00:17:40.933Z,1000.51
2019-04-07T00:18:40.991Z,1000.52
2019-04-07T00:19:40.917Z,1000.50
2019-04-07T00:20:42.010Z,1000.52
2019-04-07T00:21:40.938Z,1000.50
2019-04-07T00:22:40.884Z,1000.52
2019-04-07T00:23:40.876Z,1000.46
2019-04-07T00:24:40.862Z,1000.55
2019-04-07T00:25:41.440Z,1000.50
2019-04-07T00:26:40.839Z,1000.48
2019-04-07T00:27:40.842Z,1000.47
2019-04-07T00:28:40.841Z,1000.45
2019-04-07T00:29:40.803Z,1000.50
2019-04-07T00:30:40.798Z,1000.50
2019-04-07T00:31:40.850Z,1000.42
2019-04-07T00:32:41.292Z,1000.45
2019-04-07T00:33:41.315Z,1000.47
2019-04-07T00:34:41.338Z,1000.44
2019-04-07T00:35:40.737Z,1000.37
2019-04-07T00:36:40.734Z,1000.40
2019-04-07T00:37:40.721Z,1000.44
2019-04-07T00:38:40.716Z,1000.43
2019-04-07T00:39:41.327Z,1000.48
2019-04-07T00:40:40.684Z,1000.48
2019-04-07T00:41:40.689Z,1000.44
2019-04-07T00:42:41.222Z,1000.43
2019-04-07T00:43:40.654Z,1000.52
2019-04-07T00:44:40.646Z,1000.41
2019-04-07T00:45:40.630Z,1000.55
2019-04-07T00:46:40.631Z,1000.45
2019-04-07T00:47:40.614Z,1000.45
2019-04-07T00:48:40.764Z,1000.45
2019-04-07T00:49:41.074Z,1000.51
2019-04-07T00:50:40.611Z,1000.50
2019-04-07T00:51:41.008Z,1000.53
2019-04-07T00:52:40.562Z,1000.58
2019-04-07T00:53:40.847Z,1000.54
2019-04-07T00:54:40.897Z,1000.54
2019-04-07T00:55:40.837Z,1000.57
2019-04-07T00:56:41.080Z,1000.56
2019-04-07T00:57:40.747Z,1000.50
2019-04-07T00:58:40.494Z,1000.49
2019-04-07T00:59:40.836Z,1000.52
2019-04-07T01:00:40.485Z,1000.56
2019-04-07T01:01:40.458Z,1000.49
2019-04-07T01:02:41.308Z,1000.52
2019-04-07T01:03:40.462Z,1000.52
2019-04-07T01:04:40.685Z,1000.53
2019-04-07T01:05:41.802Z,1000.51
2019-04-07T01:06:40.627Z,1000.51
2019-04-07T01:07:40.985Z,1000.54
2019-04-07T01:08:40.387Z,1000.60
2019-04-07T01:09:40.408Z,1000.59
2019-04-07T01:10:40.547Z,1000.55
2019-04-07T01:11:40.350Z,1000.60
2019-04-07T01:12:40.336Z,1000.55
2019-04-07T01:13:40.329Z,1000.57
2019-04-07T01:14:40.313Z,1000.58
2019-04-07T01:15:40.651Z,1000.58
2019-04-07T01:16:40.718Z,1000.60
2019-04-07T01:17:40.281Z,1000.63
2019-04-07T01:18:40.514Z,1000.57
2019-04-07T01:19:40.694Z,1000.59
2019-04-07T01:20:40.268Z,1000.52
2019-04-07T01:21:40.423Z,1000.56
2019-04-07T01:22:40.778Z,1000.55
2019-04-07T01:23:40.212Z,1000.60
2019-04-07T01:24:40.667Z,1000.55
2019-04-07T01:25:40.190Z,1000.53
2019-04-07T01:26:40.490Z,1000.60
2019-04-07T01:27:40.170Z,1000.65
2019-04-07T01:28:40.697Z,1000.60
2019-04-07T01:29:40.151Z,1000.58
2019-04-07T01:30:40.418Z,1000.62
2019-04-07T01:31:40.452Z,1000.64
2019-04-07T01:32:40.121Z,1000.62
2019-04-07T01:33:40.151Z,1000.64
2019-04-07T01:34:40.438Z,1000.62
2019-04-07T01:35:46.212Z,1000.64
2019-04-07T01:36:41.306Z,1000.67
2019-04-07T01:37:40.619Z,1000.65
2019-04-07T01:38:40.053Z,1000.64
2019-04-07T01:39:40.043Z,1000.67
2019-04-07T01:40:40.033Z,1000.67
2019-04-07T01:41:40.735Z,1000.69
2019-04-07T01:42:40.014Z,1000.70
2019-04-07T01:43:40.486Z,1000.64
2019-04-07T01:44:39.980Z,1000.69
2019-04-07T01:45:39.975Z,1000.68
2019-04-07T01:46:40.459Z,1000.66
2019-04-07T01:47:39.982Z,1000.68
2019-04-07T01:48:39.944Z,1000.68
2019-04-07T01:49:40.170Z,1000.66
2019-04-07T01:50:39.916Z,1000.66
2019-04-07T01:51:40.091Z,1000.68
2019-04-07T01:52:39.896Z,1000.62
2019-04-07T01:53:39.890Z,1000.62
2019-04-07T01:54:39.905Z,1000.67
2019-04-07T01:55:40.047Z,1000.65
2019-04-07T01:56:39.997Z,1000.69
2019-04-07T01:57:39.940Z,1000.66
2019-04-07T01:58:40.656Z,1000.69
2019-04-07T01:59:39.814Z,1000.63
2019-04-07T02:00:40.368Z,1000.63
2019-04-07T02:01:39.796Z,1000.75
2019-04-07T02:02:40.115Z,1000.65
2019-04-07T02:03:39.779Z,1000.68
2019-04-07T02:04:47.945Z,1000.69
2019-04-07T02:05:39.766Z,1000.74
2019-04-07T02:06:39.918Z,1000.75
2019-04-07T02:07:40.100Z,1000.79
2019-04-07T02:08:40.243Z,1000.79
2019-04-07T02:09:40.230Z,1000.81
2019-04-07T02:10:39.698Z,1000.69
2019-04-07T02:11:39.792Z,1000.71
2019-04-07T02:12:40.157Z,1000.70
2019-04-07T02:13:40.428Z,1000.73
2019-04-07T02:14:39.653Z,1000.71
2019-04-07T02:15:39.650Z,1000.81
2019-04-07T02:16:39.974Z,1000.72
2019-04-07T02:17:39.622Z,1000.67
2019-04-07T02:18:40.082Z,1000.68
2019-04-07T02:19:39.662Z,1000.77
2019-04-07T02:20:39.580Z,1000.73
2019-04-07T02:21:40.289Z,1000.79
2019-04-07T02:22:39.568Z,1000.75
2019-04-07T02:23:39.557Z,1000.84
2019-04-07T02:24:39.935Z,1000.78
2019-04-07T02:25:39.524Z,1000.82
2019-04-07T02:26:39.518Z,1000.77
2019-04-07T02:27:39.628Z,1000.81
2019-04-07T02:28:39.494Z,1000.80
2019-04-07T02:29:40.056Z,1000.77
2019-04-07T02:30:39.527Z,1000.77
2019-04-07T02:31:40.117Z,1000.74
2019-04-07T02:32:39.454Z,1000.76
2019-04-07T02:33:39.496Z,1000.69
2019-04-07T02:34:40.106Z,1000.78
2019-04-07T02:35:39.422Z,1000.78
2019-04-07T02:36:39.406Z,1000.78
2019-04-07T02:37:39.427Z,1000.79
2019-04-07T02:38:39.391Z,1000.85
2019-04-07T02:39:39.384Z,1000.80
2019-04-07T02:40:39.516Z,1000.89
2019-04-07T02:41:40.172Z,1000.82
2019-04-07T02:42:39.600Z,1000.79
2019-04-07T02:43:40.272Z,1000.88
2019-04-07T02:44:39.319Z,1000.82
2019-04-07T02:45:39.307Z,1000.83
2019-04-07T02:46:39.515Z,1000.80
2019-04-07T02:47:39.398Z,1000.81
2019-04-07T02:48:39.578Z,1000.87
2019-04-07T02:49:39.470Z,1000.87
2019-04-07T02:50:39.907Z,1000.84
2019-04-07T02:51:40.254Z,1000.81
2019-04-07T02:52:39.233Z,1000.87
2019-04-07T02:53:39.239Z,1000.86
2019-04-07T02:54:40.049Z,1000.84
2019-04-07T02:55:39.201Z,1000.88
2019-04-07T02:56:39.882Z,1000.89
2019-04-07T02:57:40.302Z,1000.91
2019-04-07T02:58:40.109Z,1000.97
2019-04-07T02:59:42.266Z,1000.94
2019-04-07T03:00:39.393Z,1000.91
2019-04-07T03:01:39.239Z,1000.90
2019-04-07T03:02:39.336Z,1001.00
2019-04-07T03:03:39.506Z,1001.00
2019-04-07T03:04:39.103Z,1000.97
2019-04-07T03:05:39.088Z,1000.94
2019-04-07T03:06:45.991Z,1000.92
2019-04-07T03:07:41.162Z,1000.90
2019-04-07T03:08:39.630Z,1000.95
2019-04-07T03:09:40.012Z,1000.94
2019-04-07T03:10:39.041Z,1000.97
2019-04-07T03:11:39.302Z,1000.93
2019-04-07T03:12:39.341Z,1000.99
2019-04-07T03:13:39.003Z,1001.01
2019-04-07T03:14:39.211Z,1001.00
2019-04-07T03:15:38.990Z,1000.95
2019-04-07T03:16:39.439Z,1000.91
2019-04-07T03:17:38.988Z,1000.90
2019-04-07T03:18:39.093Z,1000.96
2019-04-07T03:19:39.341Z,1000.94
2019-04-07T03:20:39.227Z,1001.00
2019-04-07T03:21:39.036Z,1000.98
2019-04-07T03:22:39.624Z,1001.03
2019-04-07T03:23:38.893Z,1000.97
2019-04-07T03:24:38.891Z,1001.02
2019-04-07T03:25:39.752Z,1000.98
2019-04-07T03:26:38.860Z,1000.98
2019-04-07T03:27:38.852Z,1000.96
2019-04-07T03:28:39.919Z,1001.01
2019-04-07T03:29:38.817Z,1001.00
2019-04-07T03:30:40.989Z,1001.02
2019-04-07T03:31:40.519Z,1001.03
2019-04-07T03:32:41.328Z,1001.02
2019-04-07T03:33:43.045Z,1001.04
2019-04-07T03:34:40.868Z,1001.03
2019-04-07T03:35:40.978Z,1001.01
2019-04-07T03:37:11.016Z,1001.03
2019-04-07T03:37:44.101Z,1001.06
2019-04-07T03:38:40.935Z,1001.00
2019-04-07T03:39:39.382Z,1001.05
2019-04-07T03:40:38.711Z,1001.09
2019-04-07T03:41:39.919Z,1001.01
2019-04-07T03:42:38.698Z,1000.96
2019-04-07T03:43:38.676Z,1001.02
2019-04-07T03:44:38.691Z,1000.99
2019-04-07T03:45:38.642Z,1000.98
2019-04-07T03:46:38.915Z,1001.00
2019-04-07T03:47:39.511Z,1001.00
2019-04-07T03:48:38.620Z,1001.01
2019-04-07T03:49:39.304Z,1001.03
2019-04-07T03:50:38.775Z,1001.02
2019-04-07T03:51:39.331Z,1001.03
2019-04-07T03:52:39.387Z,1001.00
2019-04-07T03:53:39.294Z,1000.96
2019-04-07T03:54:38.571Z,1000.96
2019-04-07T03:55:38.585Z,1001.01
2019-04-07T03:56:38.523Z,1001.07
2019-04-07T03:57:39.030Z,1001.00
2019-04-07T03:58:39.676Z,1000.99
2019-04-07T03:59:38.500Z,1001.00
2019-04-07T04:00:39.289Z,1001.04
2019-04-07T04:01:38.464Z,1001.04
2019-04-07T04:02:39.079Z,1001.05
2019-04-07T04:03:38.669Z,1001.05
2019-04-07T04:04:39.359Z,1001.03
2019-04-07T04:05:39.329Z,1001.02
2019-04-07T04:06:38.946Z,1001.01
2019-04-07T04:07:38.798Z,1001.01
2019-04-07T04:08:38.390Z,1001.04
2019-04-07T04:09:40.627Z,1001.05
2019-04-07T04:10:38.605Z,1000.96
2019-04-07T04:11:38.351Z,1001.02
2019-04-07T04:12:38.580Z,1001.00
2019-04-07T04:13:38.339Z,1001.01
2019-04-07T04:14:38.319Z,1000.98
2019-04-07T04:15:39.460Z,1000.97
2019-04-07T04:16:38.355Z,1000.99
2019-04-07T04:17:39.147Z,1000.98
2019-04-07T04:18:38.285Z,1000.94
2019-04-07T04:19:38.274Z,1001.01
2019-04-07T04:20:38.784Z,1001.07
2019-04-07T04:21:38.256Z,1001.00
2019-04-07T04:22:39.400Z,1001.00
2019-04-07T04:23:41.532Z,1001.01
2019-04-07T04:24:38.259Z,1001.01
2019-04-07T04:25:38.579Z,1001.04
2019-04-07T04:26:38.232Z,1001.00
2019-04-07T04:27:38.751Z,1001.01
2019-04-07T04:28:39.031Z,1001.10
2019-04-07T04:29:38.183Z,1001.02
2019-04-07T04:30:38.171Z,1001.00
2019-04-07T04:31:38.872Z,1000.99
2019-04-07T04:32:38.126Z,1000.98
2019-04-07T04:33:38.114Z,1001.01
2019-04-07T04:34:38.999Z,1000.96
2019-04-07T04:35:38.841Z,1000.97
2019-04-07T04:36:38.119Z,1001.02
2019-04-07T04:37:44.391Z,1001.03
2019-04-07T04:38:39.110Z,1001.01
2019-04-07T04:39:38.777Z,1001.02
2019-04-07T04:40:38.030Z,1001.04
2019-04-07T04:41:38.016Z,1001.04
2019-04-07T04:42:38.036Z,1001.04
2019-04-07T04:43:38.226Z,1001.08
2019-04-07T04:44:38.052Z,1001.14
2019-04-07T04:45:38.631Z,1001.12
2019-04-07T04:46:38.767Z,1001.14
2019-04-07T04:47:39.138Z,1001.08
2019-04-07T04:48:38.828Z,1001.13
2019-04-07T04:49:38.427Z,1001.12
2019-04-07T04:50:38.483Z,1001.16
2019-04-07T04:51:39.551Z,1001.23
2019-04-07T04:52:38.307Z,1001.24
2019-04-07T04:53:38.180Z,1001.21
2019-04-07T04:54:38.626Z,1001.30
2019-04-07T04:55:37.858Z,1001.26
2019-04-07T04:56:37.852Z,1001.31
2019-04-07T04:57:37.864Z,1001.29
2019-04-07T04:58:38.058Z,1001.29
2019-04-07T04:59:37.814Z,1001.33
2019-04-07T05:00:38.405Z,1001.30
2019-04-07T05:01:37.916Z,1001.31
2019-04-07T05:02:38.256Z,1001.27
2019-04-07T05:03:38.316Z,1001.27
2019-04-07T05:04:38.490Z,1001.33
2019-04-07T05:05:38.040Z,1001.28
2019-04-07T05:06:37.912Z,1001.31
2019-04-07T05:07:51.682Z,1001.32
2019-04-07T05:08:39.196Z,1001.31
2019-04-07T05:09:44.552Z,1001.38
2019-04-07T05:10:38.767Z,1001.30
2019-04-07T05:11:37.682Z,1001.28
2019-04-07T05:12:37.923Z,1001.27
2019-04-07T05:13:37.658Z,1001.30
2019-04-07T05:14:37.862Z,1001.28
2019-04-07T05:15:37.843Z,1001.30
2019-04-07T05:16:37.624Z,1001.30
2019-04-07T05:17:38.156Z,1001.35
2019-04-07T05:18:38.257Z,1001.37
2019-04-07T05:19:37.597Z,1001.35
2019-04-07T05:20:37.708Z,1001.44
2019-04-07T05:21:37.761Z,1001.40
2019-04-07T05:22:38.037Z,1001.45
2019-04-07T05:23:37.546Z,1001.41
2019-04-07T05:24:37.685Z,1001.41
2019-04-07T05:25:37.802Z,1001.42
2019-04-07T05:26:37.723Z,1001.45
2019-04-07T05:27:38.169Z,1001.46
2019-04-07T05:28:38.042Z,1001.47
2019-04-07T05:29:37.477Z,1001.44
2019-04-07T05:30:38.022Z,1001.45
2019-04-07T05:31:37.979Z,1001.48
2019-04-07T05:32:37.756Z,1001.51
2019-04-07T05:33:37.433Z,1001.48
2019-04-07T05:34:37.800Z,1001.53
2019-04-07T05:35:37.975Z,1001.62
2019-04-07T05:36:37.935Z,1001.59
2019-04-07T05:37:37.392Z,1001.56
2019-04-07T05:38:37.755Z,1001.58
2019-04-07T05:39:37.369Z,1001.63
2019-04-07T05:40:37.367Z,1001.63
2019-04-07T05:41:37.353Z,1001.69
2019-04-07T05:42:37.959Z,1001.61
2019-04-07T05:43:38.112Z,1001.63
2019-04-07T05:44:37.312Z,1001.61
2019-04-07T05:45:37.701Z,1001.63
2019-04-07T05:46:40.920Z,1001.62
2019-04-07T05:47:38.701Z,1001.66
2019-04-07T05:48:37.277Z,1001.67
2019-04-07T05:49:37.786Z,1001.67
2019-04-07T05:50:37.249Z,1001.61
2019-04-07T05:51:37.236Z,1001.71
2019-04-07T05:52:39.791Z,1001.70
2019-04-07T05:53:37.707Z,1001.68
2019-04-07T05:54:37.837Z,1001.66
2019-04-07T05:55:37.247Z,1001.65
2019-04-07T05:56:37.186Z,1001.69
2019-04-07T05:57:37.772Z,1001.71
2019-04-07T05:58:38.693Z,1001.67
2019-04-07T05:59:37.684Z,1001.70
2019-04-07T06:00:37.199Z,1001.71
2019-04-07T06:01:37.118Z,1001.72
2019-04-07T06:02:37.538Z,1001.77
2019-04-07T06:03:41.241Z,1001.72
2019-04-07T06:04:38.092Z,1001.74
2019-04-07T06:05:37.658Z,1001.70
2019-04-07T06:06:39.970Z,1001.70
2019-04-07T06:07:37.802Z,1001.73
2019-04-07T06:08:39.212Z,1001.72
2019-04-07T06:09:37.326Z,1001.75
2019-04-07T06:10:37.127Z,1001.79
2019-04-07T06:11:37.779Z,1001.71
2019-04-07T06:12:40.871Z,1001.72
2019-04-07T06:13:38.086Z,1001.77
2019-04-07T06:14:36.976Z,1001.77
2019-04-07T06:15:36.967Z,1001.74
2019-04-07T06:16:37.718Z,1001.76
2019-04-07T06:17:36.960Z,1001.77
2019-04-07T06:18:36.948Z,1001.71
2019-04-07T06:19:40.634Z,1001.77
2019-04-07T06:20:36.994Z,1001.76
2019-04-07T06:21:37.749Z,1001.76
2019-04-07T06:22:37.034Z,1001.77
2019-04-07T06:23:37.485Z,1001.79
2019-04-07T06:24:36.867Z,1001.73
2019-04-07T06:25:40.844Z,1001.81
2019-04-07T06:26:41.533Z,1001.88
2019-04-07T06:27:36.828Z,1001.77
2019-04-07T06:28:37.030Z,1001.84
2019-04-07T06:29:36.818Z,1001.78
2019-04-07T06:30:37.273Z,1001.85
2019-04-07T06:31:36.792Z,1001.82
2019-04-07T06:32:38.391Z,1001.86
2019-04-07T06:33:38.255Z,1001.87
2019-04-07T06:34:39.745Z,1001.83
2019-04-07T06:35:36.764Z,1001.87
2019-04-07T06:36:36.733Z,1001.95
2019-04-07T06:37:37.344Z,1001.88
2019-04-07T06:38:41.624Z,1001.87
2019-04-07T06:39:38.978Z,1001.90
2019-04-07T06:40:37.276Z,1001.86
2019-04-07T06:41:36.765Z,1001.89
2019-04-07T06:42:36.666Z,1001.82
2019-04-07T06:43:38.477Z,1001.89
2019-04-07T06:44:36.794Z,1001.82
2019-04-07T06:45:36.632Z,1001.91
2019-04-07T06:46:36.881Z,1001.78
2019-04-07T06:47:37.163Z,1001.90
2019-04-07T06:48:39.052Z,1001.89
2019-04-07T06:49:37.083Z,1001.84
2019-04-07T06:50:47.722Z,1001.87
2019-04-07T06:51:37.563Z,1001.85
2019-04-07T06:52:40.602Z,1001.80
2019-04-07T06:53:38.172Z,1001.80
2019-04-07T06:54:36.529Z,1001.82
2019-04-07T06:55:36.724Z,1001.86
2019-04-07T06:56:36.975Z,1001.76
2019-04-07T06:57:37.724Z,1001.87
2019-04-07T06:58:40.813Z,1001.80
2019-04-07T06:59:37.471Z,1001.84
2019-04-07T07:00:36.515Z,1001.77
2019-04-07T07:01:36.450Z,1001.81
2019-04-07T07:02:36.832Z,1001.80
2019-04-07T07:03:38.830Z,1001.79
2019-04-07T07:04:36.722Z,1001.82
2019-04-07T07:05:36.418Z,1001.82
2019-04-07T07:06:36.406Z,1001.74
2019-04-07T07:07:36.493Z,1001.82
2019-04-07T07:08:44.522Z,1001.75
2019-04-07T07:09:38.722Z,1001.81
2019-04-07T07:10:38.980Z,1001.77
2019-04-07T07:11:40.852Z,1001.81
2019-04-07T07:12:39.140Z,1001.79
2019-04-07T07:13:36.805Z,1001.82
2019-04-07T07:14:42.593Z,1001.73
2019-04-07T07:15:37.327Z,1001.80
2019-04-07T07:16:40.318Z,1001.77
2019-04-07T07:17:37.674Z,1001.74
2019-04-07T07:18:36.275Z,1001.84
2019-04-07T07:19:36.247Z,1001.75
2019-04-07T07:20:36.244Z,1001.77
2019-04-07T07:21:39.282Z,1001.84
2019-04-07T07:22:36.224Z,1001.88
2019-04-07T07:23:36.424Z,1001.81
2019-04-07T07:24:36.905Z,1001.85
2019-04-07T07:25:36.351Z,1001.83
2019-04-07T07:26:36.638Z,1001.88
2019-04-07T07:27:38.919Z,1001.90
2019-04-07T07:28:36.749Z,1001.94
2019-04-07T07:29:36.239Z,1001.88
2019-04-07T07:30:36.130Z,1001.90
2019-04-07T07:31:36.884Z,1001.82
2019-04-07T07:32:37.351Z,1001.92
2019-04-07T07:33:38.936Z,1001.93
2019-04-07T07:34:39.861Z,1001.93
2019-04-07T07:35:37.665Z,1001.94
2019-04-07T07:36:36.123Z,1001.99
2019-04-07T07:37:36.050Z,1001.88
2019-04-07T07:38:36.126Z,1001.97
2019-04-07T07:39:36.217Z,1001.94
2019-04-07T07:40:36.033Z,1001.94
2019-04-07T07:41:36.568Z,1001.94
2019-04-07T07:42:36.569Z,1001.96
2019-04-07T07:43:35.976Z,1001.92
2019-04-07T07:44:38.371Z,1001.97
2019-04-07T07:45:36.215Z,1001.98
2019-04-07T07:46:36.434Z,1001.99
2019-04-07T07:47:36.287Z,1001.96
2019-04-07T07:48:36.702Z,1001.94
2019-04-07T07:49:39.898Z,1001.91
2019-04-07T07:50:38.720Z,1001.98
2019-04-07T07:51:38.431Z,1001.99
2019-04-07T07:52:35.878Z,1001.97
2019-04-07T07:53:36.132Z,1001.97
2019-04-07T07:54:36.610Z,1002.02
2019-04-07T07:55:37.557Z,1002.00
2019-04-07T07:56:35.842Z,1001.96
2019-04-07T07:57:35.827Z,1002.07
2019-04-07T07:58:35.845Z,1002.01
2019-04-07T07:59:38.961Z,1002.08
2019-04-07T08:00:39.810Z,1002.00
2019-04-07T08:01:37.337Z,1002.03
2019-04-07T08:02:36.486Z,1001.98
2019-04-07T08:03:36.070Z,1002.01
2019-04-07T08:04:44.484Z,1002.03
2019-04-07T08:05:36.594Z,1001.97
2019-04-07T08:06:38.477Z,1002.00
2019-04-07T08:07:35.937Z,1001.98
2019-04-07T08:08:36.331Z,1001.95
2019-04-07T08:09:35.686Z,1002.02
2019-04-07T08:10:36.328Z,1002.03
2019-04-07T08:11:35.673Z,1002.01
2019-04-07T08:12:35.877Z,1001.94
2019-04-07T08:13:42.043Z,1002.04
2019-04-07T08:14:37.137Z,1001.96
2019-04-07T08:15:36.087Z,1001.94
2019-04-07T08:16:35.735Z,1001.99
2019-04-07T08:17:35.690Z,1002.02
2019-04-07T08:18:37.209Z,1001.99
2019-04-07T08:19:38.206Z,1002.02
2019-04-07T08:20:37.333Z,1002.01
2019-04-07T08:21:35.552Z,1002.07
2019-04-07T08:22:40.731Z,1002.09
2019-04-07T08:23:37.337Z,1002.07
2019-04-07T08:24:36.213Z,1002.00
2019-04-07T08:25:35.781Z,1002.02
2019-04-07T08:26:35.500Z,1002.05
2019-04-07T08:27:35.586Z,1002.04
2019-04-07T08:28:36.104Z,1002.05
2019-04-07T08:29:37.555Z,1002.07
2019-04-07T08:30:36.103Z,1002.00
2019-04-07T08:31:35.444Z,1002.03
2019-04-07T08:32:35.435Z,1002.06
2019-04-07T08:33:35.568Z,1002.03
2019-04-07T08:34:36.100Z,1002.01
2019-04-07T08:35:38.792Z,1002.02
2019-04-07T08:36:35.390Z,1002.06
2019-04-07T08:37:36.389Z,1002.01
2019-04-07T08:38:35.424Z,1001.98
2019-04-07T08:39:36.538Z,1002.07
2019-04-07T08:40:36.887Z,1002.11
2019-04-07T08:41:35.340Z,1002.08
2019-04-07T08:42:35.783Z,1002.04
2019-04-07T08:43:35.318Z,1002.03
2019-04-07T08:44:35.483Z,1002.04
2019-04-07T08:45:35.809Z,1002.05
2019-04-07T08:46:40.055Z,1002.10
2019-04-07T08:47:36.272Z,1002.01
2019-04-07T08:48:35.263Z,1002.07
2019-04-07T08:49:36.307Z,1002.04
2019-04-07T08:50:35.250Z,1002.00
2019-04-07T08:51:35.226Z,1001.97
2019-04-07T08:52:38.485Z,1002.00
2019-04-07T08:53:36.220Z,1002.10
2019-04-07T08:54:35.562Z,1002.04
2019-04-07T08:55:35.573Z,1002.08
2019-04-07T08:56:35.186Z,1002.08
2019-04-07T08:57:35.810Z,1002.01
2019-04-07T08:58:38.432Z,1001.94
2019-04-07T08:59:35.345Z,1002.02
2019-04-07T09:00:35.136Z,1002.05
2019-04-07T09:01:35.129Z,1001.94
2019-04-07T09:02:35.831Z,1002.00
2019-04-07T09:03:35.805Z,1002.01
2019-04-07T09:04:35.437Z,1002.04
2019-04-07T09:05:35.452Z,1002.09
2019-04-07T09:06:35.091Z,1002.00
2019-04-07T09:07:35.083Z,1002.05
2019-04-07T09:08:37.972Z,1001.96
2019-04-07T09:09:37.542Z,1001.99
2019-04-07T09:10:36.021Z,1001.96
2019-04-07T09:11:35.011Z,1001.99
2019-04-07T09:12:35.053Z,1001.99
2019-04-07T09:13:34.990Z,1002.01
2019-04-07T09:14:37.861Z,1001.97
2019-04-07T09:15:34.987Z,1001.99
2019-04-07T09:16:35.862Z,1001.99
2019-04-07T09:17:40.491Z,1001.98
2019-04-07T09:18:36.704Z,1002.02
2019-04-07T09:19:35.846Z,1001.99
2019-04-07T09:20:34.914Z,1002.00
2019-04-07T09:21:40.004Z,1002.00
2019-04-07T09:22:36.363Z,1001.90
2019-04-07T09:23:35.456Z,1001.95
2019-04-07T09:24:34.870Z,1001.98
2019-04-07T09:25:37.867Z,1002.04
2019-04-07T09:26:35.469Z,1002.01
2019-04-07T09:27:35.300Z,1002.01
2019-04-07T09:28:34.859Z,1001.97
2019-04-07T09:29:35.315Z,1002.02
2019-04-07T09:30:35.550Z,1002.02
2019-04-07T09:31:34.979Z,1002.06
2019-04-07T09:32:34.786Z,1002.00
2019-04-07T09:33:37.469Z,1002.13
2019-04-07T09:34:35.558Z,1002.00
2019-04-07T09:35:36.116Z,1001.96
2019-04-07T09:36:35.306Z,1002.00
2019-04-07T09:37:34.859Z,1001.97
2019-04-07T09:38:35.435Z,1002.06
2019-04-07T09:39:52.794Z,1002.01
2019-04-07T09:40:35.694Z,1001.95
2019-04-07T09:41:35.252Z,1002.05
2019-04-07T09:42:35.549Z,1001.96
2019-04-07T09:43:34.855Z,1001.90
2019-04-07T09:44:37.635Z,1001.99
2019-04-07T09:45:34.643Z,1002.00
2019-04-07T09:46:35.398Z,1001.91
2019-04-07T09:47:34.746Z,1001.97
2019-04-07T09:48:35.368Z,1001.93
2019-04-07T09:49:35.320Z,1002.02
2019-04-07T09:50:34.598Z,1002.00
2019-04-07T09:51:37.613Z,1001.91
2019-04-07T09:52:36.005Z,1001.90
2019-04-07T09:53:34.975Z,1001.85
2019-04-07T09:54:34.551Z,1001.87
2019-04-07T09:55:34.533Z,1001.93
2019-04-07T09:56:35.293Z,1001.91
2019-04-07T09:57:37.000Z,1001.90
2019-04-07T09:58:35.024Z,1001.93
2019-04-07T09:59:35.000Z,1001.91
2019-04-07T10:00:35.233Z,1001.96
2019-04-07T10:01:35.254Z,1001.98
2019-04-07T10:02:35.674Z,1001.94
2019-04-07T10:03:37.685Z,1001.89
2019-04-07T10:04:35.629Z,1001.88
2019-04-07T10:05:34.417Z,1001.83
2019-04-07T10:06:34.413Z,1001.88
2019-04-07T10:07:34.870Z,1001.84
2019-04-07T10:08:35.159Z,1001.82
2019-04-07T10:09:34.368Z,1001.84
2019-04-07T10:10:35.004Z,1001.80
2019-04-07T10:11:34.354Z,1001.84
2019-04-07T10:12:34.598Z,1001.80
2019-04-07T10:13:34.323Z,1001.82
2019-04-07T10:14:35.023Z,1001.78
2019-04-07T10:15:34.304Z,1001.84
2019-04-07T10:16:35.362Z,1001.78
2019-04-07T10:17:34.407Z,1001.82
2019-04-07T10:18:34.873Z,1001.79
2019-04-07T10:19:35.122Z,1001.79
2019-04-07T10:20:34.256Z,1001.83
2019-04-07T10:21:34.969Z,1001.76
2019-04-07T10:22:34.233Z,1001.81
2019-04-07T10:23:34.214Z,1001.84
2019-04-07T10:24:34.612Z,1001.86
2019-04-07T10:25:34.318Z,1001.82
2019-04-07T10:26:34.223Z,1001.83
2019-04-07T10:27:34.170Z,1001.84
2019-04-07T10:28:34.163Z,1001.76
2019-04-07T10:29:34.150Z,1001.85
2019-04-07T10:30:34.923Z,1001.77
2019-04-07T10:31:34.937Z,1001.76
2019-04-07T10:32:34.153Z,1001.68
2019-04-07T10:33:34.374Z,1001.75
2019-04-07T10:34:34.216Z,1001.74
2019-04-07T10:35:34.877Z,1001.76
2019-04-07T10:36:34.093Z,1001.79
2019-04-07T10:37:34.460Z,1001.78
2019-04-07T10:38:34.059Z,1001.82
2019-04-07T10:39:34.930Z,1001.76
2019-04-07T10:40:34.669Z,1001.75
2019-04-07T10:41:34.658Z,1001.70
2019-04-07T10:42:34.651Z,1001.78
2019-04-07T10:43:34.903Z,1001.74
2019-04-07T10:44:34.183Z,1001.68
2019-04-07T10:45:34.076Z,1001.73
2019-04-07T10:46:33.969Z,1001.68
2019-04-07T10:47:34.678Z,1001.71
2019-04-07T10:48:34.292Z,1001.65
2019-04-07T10:49:34.081Z,1001.72
2019-04-07T10:50:34.655Z,1001.71
2019-04-07T10:51:34.316Z,1001.70
2019-04-07T10:52:33.994Z,1001.65
2019-04-07T10:53:35.124Z,1001.65
2019-04-07T10:54:33.933Z,1001.66
2019-04-07T10:55:34.142Z,1001.64
2019-04-07T10:56:34.448Z,1001.63
2019-04-07T10:57:34.459Z,1001.59
2019-04-07T10:58:33.834Z,1001.64
2019-04-07T10:59:34.251Z,1001.60
2019-04-07T11:00:33.840Z,1001.64
2019-04-07T11:01:34.583Z,1001.67
2019-04-07T11:02:34.004Z,1001.63
2019-04-07T11:03:34.084Z,1001.67
2019-04-07T11:04:34.079Z,1001.65
2019-04-07T11:05:33.770Z,1001.55
2019-04-07T11:06:33.902Z,1001.50
2019-04-07T11:07:33.875Z,1001.53
2019-04-07T11:08:33.877Z,1001.52
2019-04-07T11:09:34.376Z,1001.59
2019-04-07T11:10:37.857Z,1001.60
2019-04-07T11:11:34.711Z,1001.61
2019-04-07T11:12:33.683Z,1001.56
2019-04-07T11:13:34.278Z,1001.57
2019-04-07T11:14:34.085Z,1001.61
2019-04-07T11:15:34.079Z,1001.63
2019-04-07T11:16:33.781Z,1001.64
2019-04-07T11:17:33.832Z,1001.57
2019-04-07T11:18:33.771Z,1001.57
2019-04-07T11:19:34.365Z,1001.59
2019-04-07T11:20:33.870Z,1001.58
2019-04-07T11:21:33.846Z,1001.53
2019-04-07T11:22:36.112Z,1001.67
2019-04-07T11:23:33.566Z,1001.58
2019-04-07T11:24:33.882Z,1001.60
2019-04-07T11:25:33.680Z,1001.61
2019-04-07T11:26:33.550Z,1001.54
2019-04-07T11:27:33.517Z,1001.54
2019-04-07T11:28:33.802Z,1001.57
2019-04-07T11:29:33.702Z,1001.49
2019-04-07T11:30:34.215Z,1001.53
2019-04-07T11:31:34.128Z,1001.51
2019-04-07T11:32:33.462Z,1001.60
2019-04-07T11:33:34.091Z,1001.49
2019-04-07T11:34:33.439Z,1001.50
2019-04-07T11:35:33.430Z,1001.47
2019-04-07T11:36:34.174Z,1001.53
2019-04-07T11:37:33.410Z,1001.52
2019-04-07T11:38:34.072Z,1001.53
2019-04-07T11:39:33.400Z,1001.44
2019-04-07T11:40:42.563Z,1001.50
2019-04-07T11:41:34.376Z,1001.52
2019-04-07T11:42:33.460Z,1001.53
2019-04-07T11:43:33.375Z,1001.45
2019-04-07T11:44:33.976Z,1001.45
2019-04-07T11:45:33.481Z,1001.46
2019-04-07T11:46:34.017Z,1001.49
2019-04-07T11:47:33.967Z,1001.57
2019-04-07T11:48:33.296Z,1001.48
2019-04-07T11:49:33.277Z,1001.50
2019-04-07T11:50:34.284Z,1001.55
2019-04-07T11:51:33.259Z,1001.47
2019-04-07T11:52:34.021Z,1001.52
2019-04-07T11:53:33.239Z,1001.55
2019-04-07T11:54:33.916Z,1001.56
2019-04-07T11:55:33.418Z,1001.57
2019-04-07T11:56:33.932Z,1001.55
2019-04-07T11:57:33.459Z,1001.54
2019-04-07T11:58:34.734Z,1001.53
2019-04-07T11:59:33.416Z,1001.52
2019-04-07T12:00:33.379Z,1001.52
2019-04-07T12:01:33.864Z,1001.54
2019-04-07T12:02:33.167Z,1001.53
2019-04-07T12:03:33.144Z,1001.52
2019-04-07T12:04:34.441Z,1001.51
2019-04-07T12:05:33.337Z,1001.48